Terminal Aerodrome Forecast
Issued by NWS

Home | Current Version | Previous Version | Text Only | Print | Product List | Glossary On
Versions: 1 2 3 4 5 6 7 8 9 10 11 12 13 14 15 16 17 18 19 20
723
FTUS41 KBGM 102348 RRA
TAFITH
TAF
KITH 102348Z 1100/1124 25004KT P6SM -SN BKN015 OVC040
     FM110500 23005KT P6SM BKN035
     FM111400 18006KT P6SM OVC030
     FM111700 17010KT P6SM -SN OVC025
     FM111900 16010KT 3SM -SN OVC018
      TEMPO 1120/1124 1 1/2SM -SN OVC009=

USA.gov is the U.S. government's official web portal to all federal, state and local government web resources and services.